sensor_id;sensor_type;location;lat;lon;timestamp;P1;durP1;ratioP1;P2;durP2;ratioP2
22152;SDS011;11242;50.536;12.688;2023-06-24T00:01:35;23.67;;;17.20;;
22152;SDS011;11242;50.536;12.688;2023-06-24T00:04:03;23.55;;;17.63;;
22152;SDS011;11242;50.536;12.688;2023-06-24T00:06:29;22.15;;;17.52;;
22152;SDS011;11242;50.536;12.688;2023-06-24T00:08:54;25.90;;;18.05;;
22152;SDS011;11242;50.536;12.688;2023-06-24T00:11:25;23.33;;;17.38;;
22152;SDS011;11242;50.536;12.688;2023-06-24T00:13:52;23.92;;;17.98;;
22152;SDS011;11242;50.536;12.688;2023-06-24T00:16:18;28.20;;;19.38;;
22152;SDS011;11242;50.536;12.688;2023-06-24T00:18:52;23.55;;;18.23;;
22152;SDS011;11242;50.536;12.688;2023-06-24T00:21:19;24.60;;;18.48;;
22152;SDS011;11242;50.536;12.688;2023-06-24T00:23:45;25.85;;;18.35;;
22152;SDS011;11242;50.536;12.688;2023-06-24T00:26:13;28.00;;;19.10;;
22152;SDS011;11242;50.536;12.688;2023-06-24T00:28:39;29.20;;;20.08;;
22152;SDS011;11242;50.536;12.688;2023-06-24T00:31:04;27.13;;;20.40;;
22152;SDS011;11242;50.536;12.688;2023-06-24T00:33:30;27.88;;;19.98;;
22152;SDS011;11242;50.536;12.688;2023-06-24T00:36:01;27.77;;;19.52;;
22152;SDS011;11242;50.536;12.688;2023-06-24T00:38:26;27.98;;;20.85;;
22152;SDS011;11242;50.536;12.688;2023-06-24T00:40:55;30.73;;;21.33;;
22152;SDS011;11242;50.536;12.688;2023-06-24T00:43:21;28.67;;;20.27;;
22152;SDS011;11242;50.536;12.688;2023-06-24T00:45:46;28.00;;;19.45;;
22152;SDS011;11242;50.536;12.688;2023-06-24T00:48:14;26.92;;;20.15;;
22152;SDS011;11242;50.536;12.688;2023-06-24T00:50:40;27.75;;;19.83;;
22152;SDS011;11242;50.536;12.688;2023-06-24T00:53:12;28.10;;;19.75;;
22152;SDS011;11242;50.536;12.688;2023-06-24T00:55:38;25.73;;;18.65;;
22152;SDS011;11242;50.536;12.688;2023-06-24T00:58:04;29.35;;;20.10;;
22152;SDS011;11242;50.536;12.688;2023-06-24T01:00:30;26.55;;;18.33;;
22152;SDS011;11242;50.536;12.688;2023-06-24T01:02:59;26.15;;;19.13;;
22152;SDS011;11242;50.536;12.688;2023-06-24T01:05:26;24.08;;;18.55;;
22152;SDS011;11242;50.536;12.688;2023-06-24T01:07:53;26.02;;;19.30;;
22152;SDS011;11242;50.536;12.688;2023-06-24T01:10:20;24.58;;;18.38;;
22152;SDS011;11242;50.536;12.688;2023-06-24T01:12:47;26.35;;;18.90;;
22152;SDS011;11242;50.536;12.688;2023-06-24T01:15:13;26.55;;;19.23;;
22152;SDS011;11242;50.536;12.688;2023-06-24T01:17:48;26.10;;;19.42;;
22152;SDS011;11242;50.536;12.688;2023-06-24T01:23:20;24.23;;;19.10;;
22152;SDS011;11242;50.536;12.688;2023-06-24T01:37:05;23.20;;;17.15;;
22152;SDS011;11242;50.536;12.688;2023-06-24T01:39:52;22.98;;;18.92;;
22152;SDS011;11242;50.536;12.688;2023-06-24T01:42:35;22.23;;;16.83;;
22152;SDS011;11242;50.536;12.688;2023-06-24T01:48:08;20.63;;;16.98;;
22152;SDS011;11242;50.536;12.688;2023-06-24T01:53:09;20.98;;;17.17;;
22152;SDS011;11242;50.536;12.688;2023-06-24T01:55:42;19.20;;;16.50;;
22152;SDS011;11242;50.536;12.688;2023-06-24T01:58:08;23.20;;;18.15;;
22152;SDS011;11242;50.536;12.688;2023-06-24T02:00:38;22.33;;;18.40;;
22152;SDS011;11242;50.536;12.688;2023-06-24T02:03:04;21.08;;;17.42;;
22152;SDS011;11242;50.536;12.688;2023-06-24T02:05:31;21.33;;;17.13;;
22152;SDS011;11242;50.536;12.688;2023-06-24T02:08:04;20.75;;;17.60;;
22152;SDS011;11242;50.536;12.688;2023-06-24T02:10:32;20.10;;;16.50;;
22152;SDS011;11242;50.536;12.688;2023-06-24T02:12:59;22.20;;;17.23;;
22152;SDS011;11242;50.536;12.688;2023-06-24T02:15:25;20.08;;;16.63;;
22152;SDS011;11242;50.536;12.688;2023-06-24T02:17:55;22.58;;;17.33;;
22152;SDS011;11242;50.536;12.688;2023-06-24T02:20:21;20.00;;;16.70;;
22152;SDS011;11242;50.536;12.688;2023-06-24T02:22:52;22.65;;;17.52;;
22152;SDS011;11242;50.536;12.688;2023-06-24T02:25:23;18.73;;;15.77;;
22152;SDS011;11242;50.536;12.688;2023-06-24T02:27:51;21.67;;;17.42;;
22152;SDS011;11242;50.536;12.688;2023-06-24T02:30:18;21.55;;;17.45;;
22152;SDS011;11242;50.536;12.688;2023-06-24T02:32:45;21.98;;;18.08;;
22152;SDS011;11242;50.536;12.688;2023-06-24T02:35:11;22.42;;;18.70;;
22152;SDS011;11242;50.536;12.688;2023-06-24T02:37:36;22.17;;;17.63;;
22152;SDS011;11242;50.536;12.688;2023-06-24T02:40:02;23.15;;;18.45;;
22152;SDS011;11242;50.536;12.688;2023-06-24T02:42:30;22.40;;;17.77;;
22152;SDS011;11242;50.536;12.688;2023-06-24T02:44:56;22.55;;;17.98;;
22152;SDS011;11242;50.536;12.688;2023-06-24T02:47:23;23.83;;;18.50;;
22152;SDS011;11242;50.536;12.688;2023-06-24T02:49:49;23.23;;;19.55;;
22152;SDS011;11242;50.536;12.688;2023-06-24T02:52:16;23.65;;;19.35;;
22152;SDS011;11242;50.536;12.688;2023-06-24T02:54:42;24.20;;;18.77;;
22152;SDS011;11242;50.536;12.688;2023-06-24T02:57:36;23.58;;;19.65;;
22152;SDS011;11242;50.536;12.688;2023-06-24T03:00:31;27.85;;;19.13;;
22152;SDS011;11242;50.536;12.688;2023-06-24T03:03:09;24.02;;;19.85;;
22152;SDS011;11242;50.536;12.688;2023-06-24T03:05:49;24.08;;;18.95;;
22152;SDS011;11242;50.536;12.688;2023-06-24T03:08:18;24.70;;;19.23;;
22152;SDS011;11242;50.536;12.688;2023-06-24T03:10:46;26.83;;;19.83;;
22152;SDS011;11242;50.536;12.688;2023-06-24T03:13:17;25.45;;;19.40;;
22152;SDS011;11242;50.536;12.688;2023-06-24T03:15:46;26.83;;;19.40;;
22152;SDS011;11242;50.536;12.688;2023-06-24T03:18:12;21.92;;;18.30;;
22152;SDS011;11242;50.536;12.688;2023-06-24T03:20:37;22.27;;;17.80;;
22152;SDS011;11242;50.536;12.688;2023-06-24T03:23:06;22.60;;;17.83;;
22152;SDS011;11242;50.536;12.688;2023-06-24T03:25:34;22.75;;;18.67;;
22152;SDS011;11242;50.536;12.688;2023-06-24T03:28:01;21.50;;;17.55;;
22152;SDS011;11242;50.536;12.688;2023-06-24T03:30:33;20.45;;;17.08;;
22152;SDS011;11242;50.536;12.688;2023-06-24T03:32:59;22.17;;;18.80;;
22152;SDS011;11242;50.536;12.688;2023-06-24T03:35:24;21.42;;;17.88;;
22152;SDS011;11242;50.536;12.688;2023-06-24T03:37:53;19.25;;;17.08;;
22152;SDS011;11242;50.536;12.688;2023-06-24T03:40:18;20.23;;;16.90;;
22152;SDS011;11242;50.536;12.688;2023-06-24T03:42:45;21.50;;;16.83;;
22152;SDS011;11242;50.536;12.688;2023-06-24T03:45:10;19.33;;;17.27;;
22152;SDS011;11242;50.536;12.688;2023-06-24T03:47:37;21.10;;;17.15;;
22152;SDS011;11242;50.536;12.688;2023-06-24T03:50:06;19.45;;;16.40;;
22152;SDS011;11242;50.536;12.688;2023-06-24T03:52:32;19.48;;;17.38;;
22152;SDS011;11242;50.536;12.688;2023-06-24T03:54:59;20.83;;;17.75;;
22152;SDS011;11242;50.536;12.688;2023-06-24T03:57:26;24.17;;;18.48;;
22152;SDS011;11242;50.536;12.688;2023-06-24T03:59:52;22.33;;;18.92;;
22152;SDS011;11242;50.536;12.688;2023-06-24T04:02:19;23.80;;;18.02;;
22152;SDS011;11242;50.536;12.688;2023-06-24T04:04:45;21.30;;;18.00;;
22152;SDS011;11242;50.536;12.688;2023-06-24T04:07:15;19.85;;;17.63;;
22152;SDS011;11242;50.536;12.688;2023-06-24T04:09:55;22.08;;;19.02;;
22152;SDS011;11242;50.536;12.688;2023-06-24T04:12:21;25.10;;;19.63;;
22152;SDS011;11242;50.536;12.688;2023-06-24T04:14:47;19.90;;;17.42;;
22152;SDS011;11242;50.536;12.688;2023-06-24T04:17:13;22.63;;;17.65;;
22152;SDS011;11242;50.536;12.688;2023-06-24T04:19:38;22.92;;;17.10;;
22152;SDS011;11242;50.536;12.688;2023-06-24T04:22:04;21.05;;;17.15;;
22152;SDS011;11242;50.536;12.688;2023-06-24T04:24:30;20.13;;;17.55;;
22152;SDS011;11242;50.536;12.688;2023-06-24T04:26:57;19.52;;;16.85;;
22152;SDS011;11242;50.536;12.688;2023-06-24T04:29:23;22.65;;;16.17;;
22152;SDS011;11242;50.536;12.688;2023-06-24T04:31:48;19.08;;;17.17;;
22152;SDS011;11242;50.536;12.688;2023-06-24T04:34:15;18.38;;;16.42;;
22152;SDS011;11242;50.536;12.688;2023-06-24T04:36:41;18.08;;;15.93;;
22152;SDS011;11242;50.536;12.688;2023-06-24T04:39:06;17.75;;;15.80;;
22152;SDS011;11242;50.536;12.688;2023-06-24T04:41:32;18.77;;;16.83;;
22152;SDS011;11242;50.536;12.688;2023-06-24T04:44:01;18.00;;;16.10;;
22152;SDS011;11242;50.536;12.688;2023-06-24T04:46:27;20.02;;;16.48;;
22152;SDS011;11242;50.536;12.688;2023-06-24T04:48:52;18.83;;;16.92;;
22152;SDS011;11242;50.536;12.688;2023-06-24T04:51:18;18.83;;;16.83;;
22152;SDS011;11242;50.536;12.688;2023-06-24T04:53:44;18.73;;;16.67;;
22152;SDS011;11242;50.536;12.688;2023-06-24T04:56:09;17.88;;;16.05;;
22152;SDS011;11242;50.536;12.688;2023-06-24T04:58:35;19.10;;;16.80;;
22152;SDS011;11242;50.536;12.688;2023-06-24T05:01:00;17.67;;;15.20;;
22152;SDS011;11242;50.536;12.688;2023-06-24T05:03:26;21.20;;;16.33;;
22152;SDS011;11242;50.536;12.688;2023-06-24T05:05:52;18.55;;;16.60;;
22152;SDS011;11242;50.536;12.688;2023-06-24T05:08:17;20.00;;;16.10;;
22152;SDS011;11242;50.536;12.688;2023-06-24T05:10:43;21.40;;;17.42;;
22152;SDS011;11242;50.536;12.688;2023-06-24T05:13:08;19.98;;;16.67;;
22152;SDS011;11242;50.536;12.688;2023-06-24T05:15:34;18.63;;;16.65;;
22152;SDS011;11242;50.536;12.688;2023-06-24T05:17:59;20.58;;;17.38;;
22152;SDS011;11242;50.536;12.688;2023-06-24T05:20:25;21.05;;;16.85;;
22152;SDS011;11242;50.536;12.688;2023-06-24T05:22:51;19.70;;;17.10;;
22152;SDS011;11242;50.536;12.688;2023-06-24T05:25:16;21.10;;;17.48;;
22152;SDS011;11242;50.536;12.688;2023-06-24T05:27:42;21.40;;;16.98;;
22152;SDS011;11242;50.536;12.688;2023-06-24T05:30:12;21.38;;;18.98;;
22152;SDS011;11242;50.536;12.688;2023-06-24T05:32:39;21.23;;;18.75;;
22152;SDS011;11242;50.536;12.688;2023-06-24T05:35:05;20.75;;;18.55;;
22152;SDS011;11242;50.536;12.688;2023-06-24T05:37:31;21.00;;;18.40;;
22152;SDS011;11242;50.536;12.688;2023-06-24T05:39:56;20.98;;;17.83;;
22152;SDS011;11242;50.536;12.688;2023-06-24T05:42:22;21.83;;;19.13;;
22152;SDS011;11242;50.536;12.688;2023-06-24T05:44:48;22.83;;;19.58;;
22152;SDS011;11242;50.536;12.688;2023-06-24T05:47:14;29.55;;;24.20;;
22152;SDS011;11242;50.536;12.688;2023-06-24T05:49:40;27.98;;;23.05;;
22152;SDS011;11242;50.536;12.688;2023-06-24T05:52:05;26.95;;;22.42;;
22152;SDS011;11242;50.536;12.688;2023-06-24T05:54:31;28.27;;;23.55;;
22152;SDS011;11242;50.536;12.688;2023-06-24T05:56:57;26.15;;;23.38;;
22152;SDS011;11242;50.536;12.688;2023-06-24T05:59:22;25.38;;;22.48;;
22152;SDS011;11242;50.536;12.688;2023-06-24T06:01:48;26.75;;;23.75;;
22152;SDS011;11242;50.536;12.688;2023-06-24T06:04:13;27.80;;;23.27;;
22152;SDS011;11242;50.536;12.688;2023-06-24T06:06:39;27.23;;;23.45;;
22152;SDS011;11242;50.536;12.688;2023-06-24T06:09:05;26.08;;;23.42;;
22152;SDS011;11242;50.536;12.688;2023-06-24T06:11:31;29.98;;;23.67;;
22152;SDS011;11242;50.536;12.688;2023-06-24T06:13:56;25.92;;;23.35;;
22152;SDS011;11242;50.536;12.688;2023-06-24T06:16:25;26.00;;;23.23;;
22152;SDS011;11242;50.536;12.688;2023-06-24T06:18:50;26.90;;;23.88;;
22152;SDS011;11242;50.536;12.688;2023-06-24T06:21:16;31.67;;;25.13;;
22152;SDS011;11242;50.536;12.688;2023-06-24T06:23:41;27.95;;;24.85;;
22152;SDS011;11242;50.536;12.688;2023-06-24T06:26:07;28.52;;;25.63;;
22152;SDS011;11242;50.536;12.688;2023-06-24T06:28:33;25.50;;;22.70;;
22152;SDS011;11242;50.536;12.688;2023-06-24T06:30:59;25.48;;;22.75;;
22152;SDS011;11242;50.536;12.688;2023-06-24T06:33:25;23.38;;;20.98;;
22152;SDS011;11242;50.536;12.688;2023-06-24T06:35:51;22.85;;;19.95;;
22152;SDS011;11242;50.536;12.688;2023-06-24T06:38:16;21.75;;;19.42;;
22152;SDS011;11242;50.536;12.688;2023-06-24T06:40:42;19.58;;;17.60;;
22152;SDS011;11242;50.536;12.688;2023-06-24T06:43:07;19.90;;;17.80;;
22152;SDS011;11242;50.536;12.688;2023-06-24T06:45:33;18.13;;;16.30;;
22152;SDS011;11242;50.536;12.688;2023-06-24T06:47:58;17.55;;;15.68;;
22152;SDS011;11242;50.536;12.688;2023-06-24T06:50:24;17.50;;;15.82;;
22152;SDS011;11242;50.536;12.688;2023-06-24T06:52:49;17.35;;;15.75;;
22152;SDS011;11242;50.536;12.688;2023-06-24T06:55:15;18.50;;;16.48;;
22152;SDS011;11242;50.536;12.688;2023-06-24T06:57:41;16.92;;;15.13;;
22152;SDS011;11242;50.536;12.688;2023-06-24T07:00:07;17.73;;;15.90;;
22152;SDS011;11242;50.536;12.688;2023-06-24T07:02:33;19.15;;;16.05;;
22152;SDS011;11242;50.536;12.688;2023-06-24T07:05:02;16.85;;;15.25;;
22152;SDS011;11242;50.536;12.688;2023-06-24T07:07:28;16.65;;;15.18;;
22152;SDS011;11242;50.536;12.688;2023-06-24T07:09:54;15.82;;;14.25;;
22152;SDS011;11242;50.536;12.688;2023-06-24T07:12:19;13.98;;;12.65;;
22152;SDS011;11242;50.536;12.688;2023-06-24T07:14:46;17.33;;;15.63;;
22152;SDS011;11242;50.536;12.688;2023-06-24T07:17:11;16.70;;;15.10;;
22152;SDS011;11242;50.536;12.688;2023-06-24T07:19:37;14.95;;;13.50;;
22152;SDS011;11242;50.536;12.688;2023-06-24T07:22:02;13.15;;;11.95;;
22152;SDS011;11242;50.536;12.688;2023-06-24T07:24:28;13.07;;;11.88;;
22152;SDS011;11242;50.536;12.688;2023-06-24T07:26:54;12.65;;;11.40;;
22152;SDS011;11242;50.536;12.688;2023-06-24T07:29:20;13.82;;;12.45;;
22152;SDS011;11242;50.536;12.688;2023-06-24T07:31:46;17.38;;;15.52;;
22152;SDS011;11242;50.536;12.688;2023-06-24T07:34:11;12.85;;;11.60;;
22152;SDS011;11242;50.536;12.688;2023-06-24T07:36:37;13.70;;;12.40;;
22152;SDS011;11242;50.536;12.688;2023-06-24T07:39:03;12.63;;;11.43;;
22152;SDS011;11242;50.536;12.688;2023-06-24T07:41:28;12.60;;;11.30;;
22152;SDS011;11242;50.536;12.688;2023-06-24T07:43:54;15.55;;;13.93;;
22152;SDS011;11242;50.536;12.688;2023-06-24T07:46:20;20.98;;;18.77;;
22152;SDS011;11242;50.536;12.688;2023-06-24T07:48:45;13.88;;;11.75;;
22152;SDS011;11242;50.536;12.688;2023-06-24T07:51:14;11.85;;;10.77;;
22152;SDS011;11242;50.536;12.688;2023-06-24T07:53:39;11.95;;;10.88;;
22152;SDS011;11242;50.536;12.688;2023-06-24T07:56:05;13.98;;;12.48;;
22152;SDS011;11242;50.536;12.688;2023-06-24T07:58:31;12.77;;;11.57;;
22152;SDS011;11242;50.536;12.688;2023-06-24T08:00:56;13.00;;;11.80;;
22152;SDS011;11242;50.536;12.688;2023-06-24T08:03:22;11.30;;;10.23;;
22152;SDS011;11242;50.536;12.688;2023-06-24T08:05:48;11.75;;;10.50;;
22152;SDS011;11242;50.536;12.688;2023-06-24T08:08:15;14.68;;;10.55;;
22152;SDS011;11242;50.536;12.688;2023-06-24T08:10:40;10.20;;;9.13;;
22152;SDS011;11242;50.536;12.688;2023-06-24T08:13:06;9.52;;;8.57;;
22152;SDS011;11242;50.536;12.688;2023-06-24T08:15:31;11.40;;;9.00;;
22152;SDS011;11242;50.536;12.688;2023-06-24T08:17:57;9.43;;;8.52;;
22152;SDS011;11242;50.536;12.688;2023-06-24T08:20:23;8.38;;;7.68;;
22152;SDS011;11242;50.536;12.688;2023-06-24T08:22:49;9.90;;;8.68;;
22152;SDS011;11242;50.536;12.688;2023-06-24T08:25:15;9.43;;;8.43;;
22152;SDS011;11242;50.536;12.688;2023-06-24T08:27:41;11.52;;;8.57;;
22152;SDS011;11242;50.536;12.688;2023-06-24T08:30:08;9.35;;;8.32;;
22152;SDS011;11242;50.536;12.688;2023-06-24T08:32:34;9.93;;;8.90;;
22152;SDS011;11242;50.536;12.688;2023-06-24T08:35:00;10.88;;;9.43;;
22152;SDS011;11242;50.536;12.688;2023-06-24T08:37:25;9.30;;;8.38;;
22152;SDS011;11242;50.536;12.688;2023-06-24T08:39:51;7.60;;;6.85;;
22152;SDS011;11242;50.536;12.688;2023-06-24T08:42:16;7.35;;;6.65;;
22152;SDS011;11242;50.536;12.688;2023-06-24T08:44:42;9.00;;;6.32;;
22152;SDS011;11242;50.536;12.688;2023-06-24T08:47:07;7.68;;;6.20;;
22152;SDS011;11242;50.536;12.688;2023-06-24T08:49:34;8.35;;;6.00;;
22152;SDS011;11242;50.536;12.688;2023-06-24T08:52:08;7.47;;;5.88;;
22152;SDS011;11242;50.536;12.688;2023-06-24T08:54:36;8.30;;;6.78;;
22152;SDS011;11242;50.536;12.688;2023-06-24T08:57:04;8.60;;;7.30;;
22152;SDS011;11242;50.536;12.688;2023-06-24T08:59:32;7.65;;;6.85;;
22152;SDS011;11242;50.536;12.688;2023-06-24T09:01:58;6.68;;;5.88;;
22152;SDS011;11242;50.536;12.688;2023-06-24T09:04:24;7.20;;;5.60;;
22152;SDS011;11242;50.536;12.688;2023-06-24T09:06:49;7.28;;;5.78;;
22152;SDS011;11242;50.536;12.688;2023-06-24T09:09:19;6.38;;;5.70;;
22152;SDS011;11242;50.536;12.688;2023-06-24T09:11:56;7.18;;;5.70;;
22152;SDS011;11242;50.536;12.688;2023-06-24T09:14:29;6.60;;;5.50;;
22152;SDS011;11242;50.536;12.688;2023-06-24T09:17:00;8.40;;;5.78;;
22152;SDS011;11242;50.536;12.688;2023-06-24T09:19:27;6.85;;;6.18;;
22152;SDS011;11242;50.536;12.688;2023-06-24T09:22:05;8.77;;;6.30;;
22152;SDS011;11242;50.536;12.688;2023-06-24T09:24:32;6.82;;;5.90;;
22152;SDS011;11242;50.536;12.688;2023-06-24T09:26:58;7.18;;;5.20;;
22152;SDS011;11242;50.536;12.688;2023-06-24T09:29:25;5.57;;;4.95;;
22152;SDS011;11242;50.536;12.688;2023-06-24T09:31:52;6.47;;;4.60;;
22152;SDS011;11242;50.536;12.688;2023-06-24T09:34:18;5.50;;;4.95;;
22152;SDS011;11242;50.536;12.688;2023-06-24T09:36:45;7.22;;;5.70;;
22152;SDS011;11242;50.536;12.688;2023-06-24T09:39:15;5.65;;;5.15;;
22152;SDS011;11242;50.536;12.688;2023-06-24T09:41:41;6.40;;;5.80;;
22152;SDS011;11242;50.536;12.688;2023-06-24T09:44:12;7.20;;;5.80;;
22152;SDS011;11242;50.536;12.688;2023-06-24T09:46:38;5.97;;;5.40;;
22152;SDS011;11242;50.536;12.688;2023-06-24T09:49:06;6.53;;;5.57;;
22152;SDS011;11242;50.536;12.688;2023-06-24T09:51:36;9.98;;;5.60;;
22152;SDS011;11242;50.536;12.688;2023-06-24T09:54:05;7.35;;;6.03;;
22152;SDS011;11242;50.536;12.688;2023-06-24T09:56:33;9.07;;;6.18;;
22152;SDS011;11242;50.536;12.688;2023-06-24T09:59:03;6.10;;;5.55;;
22152;SDS011;11242;50.536;12.688;2023-06-24T10:01:30;6.70;;;6.10;;
22152;SDS011;11242;50.536;12.688;2023-06-24T10:04:01;7.35;;;5.72;;
22152;SDS011;11242;50.536;12.688;2023-06-24T10:06:27;6.95;;;6.10;;
22152;SDS011;11242;50.536;12.688;2023-06-24T10:08:53;6.50;;;5.90;;
22152;SDS011;11242;50.536;12.688;2023-06-24T10:11:19;8.48;;;5.80;;
22152;SDS011;11242;50.536;12.688;2023-06-24T10:13:46;8.30;;;6.28;;
22152;SDS011;11242;50.536;12.688;2023-06-24T10:16:14;8.60;;;6.70;;
22152;SDS011;11242;50.536;12.688;2023-06-24T10:18:40;8.32;;;5.93;;
22152;SDS011;11242;50.536;12.688;2023-06-24T10:21:07;7.28;;;6.50;;
22152;SDS011;11242;50.536;12.688;2023-06-24T10:23:33;6.32;;;5.72;;
22152;SDS011;11242;50.536;12.688;2023-06-24T10:26:14;6.95;;;6.05;;
22152;SDS011;11242;50.536;12.688;2023-06-24T10:36:57;7.45;;;6.50;;
22152;SDS011;11242;50.536;12.688;2023-06-24T10:42:33;7.32;;;6.20;;
22152;SDS011;11242;50.536;12.688;2023-06-24T10:47:34;6.97;;;6.28;;
22152;SDS011;11242;50.536;12.688;2023-06-24T10:50:10;8.52;;;6.15;;
22152;SDS011;11242;50.536;12.688;2023-06-24T10:52:38;8.27;;;6.55;;
22152;SDS011;11242;50.536;12.688;2023-06-24T10:55:05;9.05;;;7.10;;
22152;SDS011;11242;50.536;12.688;2023-06-24T10:57:32;7.30;;;6.53;;
22152;SDS011;11242;50.536;12.688;2023-06-24T10:59:58;7.57;;;6.75;;
22152;SDS011;11242;50.536;12.688;2023-06-24T11:02:27;8.75;;;6.63;;
22152;SDS011;11242;50.536;12.688;2023-06-24T11:04:53;8.95;;;7.00;;
22152;SDS011;11242;50.536;12.688;2023-06-24T11:07:27;7.30;;;6.20;;
22152;SDS011;11242;50.536;12.688;2023-06-24T11:10:00;8.25;;;5.90;;
22152;SDS011;11242;50.536;12.688;2023-06-24T11:12:34;7.07;;;6.35;;
22152;SDS011;11242;50.536;12.688;2023-06-24T11:15:01;7.30;;;6.53;;
22152;SDS011;11242;50.536;12.688;2023-06-24T11:17:32;6.68;;;6.07;;
22152;SDS011;11242;50.536;12.688;2023-06-24T11:20:02;6.80;;;6.20;;
22152;SDS011;11242;50.536;12.688;2023-06-24T11:22:32;8.98;;;6.32;;
22152;SDS011;11242;50.536;12.688;2023-06-24T11:24:57;7.60;;;6.28;;
22152;SDS011;11242;50.536;12.688;2023-06-24T11:27:23;7.82;;;7.03;;
22152;SDS011;11242;50.536;12.688;2023-06-24T11:29:59;12.43;;;6.55;;
22152;SDS011;11242;50.536;12.688;2023-06-24T11:32:37;7.30;;;6.53;;
22152;SDS011;11242;50.536;12.688;2023-06-24T11:35:04;9.27;;;7.32;;
22152;SDS011;11242;50.536;12.688;2023-06-24T11:37:31;7.68;;;7.03;;
22152;SDS011;11242;50.536;12.688;2023-06-24T11:40:07;8.63;;;6.93;;
22152;SDS011;11242;50.536;12.688;2023-06-24T11:42:35;8.20;;;7.40;;
22152;SDS011;11242;50.536;12.688;2023-06-24T11:45:06;8.02;;;7.22;;
22152;SDS011;11242;50.536;12.688;2023-06-24T11:47:33;8.05;;;7.25;;
22152;SDS011;11242;50.536;12.688;2023-06-24T11:50:00;8.18;;;7.05;;
22152;SDS011;11242;50.536;12.688;2023-06-24T11:55:21;8.98;;;7.00;;
22152;SDS011;11242;50.536;12.688;2023-06-24T12:00:14;7.47;;;6.72;;
22152;SDS011;11242;50.536;12.688;2023-06-24T12:02:40;8.50;;;7.22;;
22152;SDS011;11242;50.536;12.688;2023-06-24T12:05:09;7.22;;;6.53;;
22152;SDS011;11242;50.536;12.688;2023-06-24T12:07:34;8.07;;;7.20;;
22152;SDS011;11242;50.536;12.688;2023-06-24T12:10:00;8.23;;;7.45;;
22152;SDS011;11242;50.536;12.688;2023-06-24T12:12:25;7.68;;;6.88;;
22152;SDS011;11242;50.536;12.688;2023-06-24T12:14:51;7.53;;;6.22;;
22152;SDS011;11242;50.536;12.688;2023-06-24T12:17:16;7.35;;;6.65;;
22152;SDS011;11242;50.536;12.688;2023-06-24T12:19:42;8.32;;;6.65;;
22152;SDS011;11242;50.536;12.688;2023-06-24T12:22:08;7.78;;;6.13;;
22152;SDS011;11242;50.536;12.688;2023-06-24T12:24:33;7.13;;;6.43;;
22152;SDS011;11242;50.536;12.688;2023-06-24T12:26:59;6.32;;;5.72;;
22152;SDS011;11242;50.536;12.688;2023-06-24T12:29:25;8.90;;;6.40;;
22152;SDS011;11242;50.536;12.688;2023-06-24T12:31:50;6.65;;;6.05;;
22152;SDS011;11242;50.536;12.688;2023-06-24T12:34:16;6.65;;;5.93;;
22152;SDS011;11242;50.536;12.688;2023-06-24T12:36:41;7.75;;;6.65;;
22152;SDS011;11242;50.536;12.688;2023-06-24T12:39:07;6.72;;;6.13;;
22152;SDS011;11242;50.536;12.688;2023-06-24T12:41:32;7.65;;;5.93;;
22152;SDS011;11242;50.536;12.688;2023-06-24T12:43:58;8.05;;;5.97;;
22152;SDS011;11242;50.536;12.688;2023-06-24T12:46:24;6.30;;;5.63;;
22152;SDS011;11242;50.536;12.688;2023-06-24T12:48:49;6.30;;;5.70;;
22152;SDS011;11242;50.536;12.688;2023-06-24T12:51:15;6.53;;;5.90;;
22152;SDS011;11242;50.536;12.688;2023-06-24T12:53:40;6.57;;;5.85;;
22152;SDS011;11242;50.536;12.688;2023-06-24T12:56:06;11.45;;;6.28;;
22152;SDS011;11242;50.536;12.688;2023-06-24T12:58:33;7.72;;;6.40;;
22152;SDS011;11242;50.536;12.688;2023-06-24T13:00:59;6.95;;;5.93;;
22152;SDS011;11242;50.536;12.688;2023-06-24T13:03:27;6.72;;;6.03;;
22152;SDS011;11242;50.536;12.688;2023-06-24T13:05:53;7.20;;;6.50;;
22152;SDS011;11242;50.536;12.688;2023-06-24T13:08:18;7.55;;;5.85;;
22152;SDS011;11242;50.536;12.688;2023-06-24T13:10:44;7.18;;;6.43;;
22152;SDS011;11242;50.536;12.688;2023-06-24T13:13:10;6.85;;;6.15;;
22152;SDS011;11242;50.536;12.688;2023-06-24T13:15:35;6.20;;;5.60;;
22152;SDS011;11242;50.536;12.688;2023-06-24T13:18:01;6.95;;;5.57;;
22152;SDS011;11242;50.536;12.688;2023-06-24T13:20:27;6.45;;;5.82;;
22152;SDS011;11242;50.536;12.688;2023-06-24T13:22:52;5.97;;;5.38;;
22152;SDS011;11242;50.536;12.688;2023-06-24T13:25:18;7.05;;;5.50;;
22152;SDS011;11242;50.536;12.688;2023-06-24T13:27:44;5.82;;;5.32;;
22152;SDS011;11242;50.536;12.688;2023-06-24T13:30:10;6.20;;;5.28;;
22152;SDS011;11242;50.536;12.688;2023-06-24T13:32:36;5.68;;;5.13;;
22152;SDS011;11242;50.536;12.688;2023-06-24T13:35:02;5.60;;;5.10;;
22152;SDS011;11242;50.536;12.688;2023-06-24T13:37:29;6.35;;;5.57;;
22152;SDS011;11242;50.536;12.688;2023-06-24T13:39:57;7.22;;;5.40;;
22152;SDS011;11242;50.536;12.688;2023-06-24T13:42:23;6.78;;;6.00;;
22152;SDS011;11242;50.536;12.688;2023-06-24T13:44:50;6.07;;;5.47;;
22152;SDS011;11242;50.536;12.688;2023-06-24T13:47:16;7.35;;;6.65;;
22152;SDS011;11242;50.536;12.688;2023-06-24T13:49:42;6.38;;;5.78;;
22152;SDS011;11242;50.536;12.688;2023-06-24T13:52:07;7.30;;;5.65;;
22152;SDS011;11242;50.536;12.688;2023-06-24T13:54:33;6.05;;;5.47;;
22152;SDS011;11242;50.536;12.688;2023-06-24T13:57:00;6.28;;;5.68;;
22152;SDS011;11242;50.536;12.688;2023-06-24T13:59:26;6.60;;;5.97;;
22152;SDS011;11242;50.536;12.688;2023-06-24T14:01:51;7.60;;;5.88;;
22152;SDS011;11242;50.536;12.688;2023-06-24T14:04:17;7.47;;;5.97;;
22152;SDS011;11242;50.536;12.688;2023-06-24T14:06:42;10.15;;;5.30;;
22152;SDS011;11242;50.536;12.688;2023-06-24T14:09:08;6.75;;;5.65;;
22152;SDS011;11242;50.536;12.688;2023-06-24T14:11:34;5.65;;;5.15;;
22152;SDS011;11242;50.536;12.688;2023-06-24T14:14:00;6.05;;;5.45;;
22152;SDS011;11242;50.536;12.688;2023-06-24T14:16:29;6.00;;;5.50;;
22152;SDS011;11242;50.536;12.688;2023-06-24T14:19:23;6.88;;;5.57;;
22152;SDS011;11242;50.536;12.688;2023-06-24T14:21:54;7.05;;;5.53;;
22152;SDS011;11242;50.536;12.688;2023-06-24T14:24:20;6.80;;;5.53;;
22152;SDS011;11242;50.536;12.688;2023-06-24T14:26:45;6.35;;;5.75;;
22152;SDS011;11242;50.536;12.688;2023-06-24T14:29:14;6.03;;;5.50;;
22152;SDS011;11242;50.536;12.688;2023-06-24T14:31:40;6.43;;;5.85;;
22152;SDS011;11242;50.536;12.688;2023-06-24T14:34:05;6.88;;;6.00;;
22152;SDS011;11242;50.536;12.688;2023-06-24T14:36:31;5.70;;;5.20;;
22152;SDS011;11242;50.536;12.688;2023-06-24T14:38:56;6.88;;;5.32;;
22152;SDS011;11242;50.536;12.688;2023-06-24T14:41:22;5.65;;;5.18;;
22152;SDS011;11242;50.536;12.688;2023-06-24T14:43:47;6.15;;;5.60;;
22152;SDS011;11242;50.536;12.688;2023-06-24T14:46:13;6.70;;;6.00;;
22152;SDS011;11242;50.536;12.688;2023-06-24T14:48:38;8.30;;;5.65;;
22152;SDS011;11242;50.536;12.688;2023-06-24T14:51:04;5.10;;;4.70;;
22152;SDS011;11242;50.536;12.688;2023-06-24T14:53:30;7.45;;;5.60;;
22152;SDS011;11242;50.536;12.688;2023-06-24T14:55:55;5.50;;;5.00;;
22152;SDS011;11242;50.536;12.688;2023-06-24T14:58:21;5.85;;;4.82;;
22152;SDS011;11242;50.536;12.688;2023-06-24T15:00:46;5.40;;;4.90;;